Time;durP1;ratioP1;P1;durP2;ratioP2;P2;SDS_P1;SDS_P2;PMS_P1;PMS_P2;Temp;Humidity;BMP_temperature;BMP_pressure;BME280_temperature;BME280_humidity;BME280_pressure;Samples;Min_cycle;Max_cycle;Signal;HPM_P1;HPM_P2
2021/06/10 00:01:03;;;;;;;3.30;2.90;;;23.00;71.80;;;;;;6091437;23;20167;-82
2021/06/10 00:03:29;;;;;;;4.37;3.00;;;22.90;72.50;;;;;;6091510;23;20158;-82
2021/06/10 00:05:55;;;;;;;6.07;3.10;;;22.90;72.90;;;;;;6091440;23;20196;-82
2021/06/10 00:08:21;;;;;;;6.23;3.10;;;22.80;73.10;;;;;;6091596;23;20158;-82
2021/06/10 00:10:47;;;;;;;4.77;3.50;;;22.80;73.30;;;;;;6091218;23;20150;-82
2021/06/10 00:13:15;;;;;;;6.90;3.40;;;22.80;73.50;;;;;;6092718;23;20500;-82
2021/06/10 00:15:40;;;;;;;6.20;3.33;;;22.80;73.30;;;;;;6091572;23;20159;-82
2021/06/10 00:18:07;;;;;;;5.30;3.53;;;22.80;73.40;;;;;;6091331;23;20150;-82
2021/06/10 00:20:35;;;;;;;5.43;3.23;;;22.90;73.20;;;;;;6091567;23;20155;-82
2021/06/10 00:23:02;;;;;;;6.37;3.13;;;22.80;73.30;;;;;;6091437;23;20643;-84
2021/06/10 00:25:29;;;;;;;7.70;3.13;;;22.80;73.50;;;;;;6091390;23;20161;-82
2021/06/10 00:27:55;;;;;;;6.80;3.47;;;22.70;73.80;;;;;;6091109;23;20158;-82
2021/06/10 00:30:21;;;;;;;5.30;3.00;;;22.80;73.90;;;;;;6091954;23;20158;-83
2021/06/10 00:32:48;;;;;;;6.67;3.37;;;22.70;74.20;;;;;;6091290;23;20243;-82
2021/06/10 00:35:16;;;;;;;5.57;3.40;;;22.60;74.50;;;;;;6091598;23;20177;-84
2021/06/10 00:37:43;;;;;;;10.80;3.27;;;22.50;74.90;;;;;;6091049;23;20200;-82
2021/06/10 00:40:11;;;;;;;6.23;3.40;;;22.50;75.10;;;;;;6092714;23;20147;-82
2021/06/10 00:42:37;;;;;;;4.53;3.20;;;22.30;75.40;;;;;;6092334;23;20169;-84
2021/06/10 00:45:08;;;;;;;5.47;3.60;;;22.20;75.80;;;;;;6092346;23;20147;-83
2021/06/10 00:47:34;;;;;;;4.40;3.10;;;22.20;75.80;;;;;;6091916;23;20648;-82
2021/06/10 00:50:00;;;;;;;5.10;3.53;;;22.20;76.00;;;;;;6092735;23;20147;-82
2021/06/10 00:52:25;;;;;;;6.13;3.57;;;22.00;76.10;;;;;;6092102;23;20478;-82
2021/06/10 00:54:51;;;;;;;6.13;3.13;;;22.10;76.10;;;;;;6094086;23;20200;-82
2021/06/10 00:57:16;;;;;;;7.13;3.43;;;22.00;75.90;;;;;;6092269;23;20151;-83
2021/06/10 00:59:42;;;;;;;5.20;3.77;;;22.10;76.40;;;;;;6092174;23;20163;-82
2021/06/10 01:02:08;;;;;;;6.73;3.87;;;22.00;76.50;;;;;;6092484;23;20198;-82
2021/06/10 01:04:33;;;;;;;6.90;3.43;;;22.00;76.70;;;;;;6092476;23;20221;-82
2021/06/10 01:07:27;;;;;;;8.03;3.73;;;21.90;76.90;;;;;;6092157;23;20178;-82
2021/06/10 01:10:25;;;;;;;5.00;3.47;;;21.90;77.20;;;;;;6092417;23;20166;-82
2021/06/10 01:13:22;;;;;;;6.00;3.13;;;21.80;77.40;;;;;;6092344;23;20190;-82
2021/06/10 01:15:52;;;;;;;4.63;3.40;;;21.80;77.40;;;;;;6092265;23;20150;-82
2021/06/10 01:18:19;;;;;;;5.67;3.50;;;21.80;77.40;;;;;;6092365;23;20238;-82
2021/06/10 01:20:45;;;;;;;4.73;3.77;;;21.90;77.30;;;;;;6092202;23;20155;-83
2021/06/10 01:23:38;;;;;;;7.23;3.87;;;21.80;77.60;;;;;;6092446;23;20149;-82
2021/06/10 01:26:44;;;;;;;9.97;4.13;;;21.70;78.30;;;;;;6093586;23;20141;-83
2021/06/10 01:29:12;;;;;;;6.33;3.60;;;21.80;77.60;;;;;;6117153;23;20173;-83
2021/06/10 01:31:39;;;;;;;5.20;4.10;;;21.80;77.60;;;;;;6092228;23;20189;-83
2021/06/10 01:34:06;;;;;;;5.37;3.90;;;21.70;77.90;;;;;;6091999;23;20204;-82
2021/06/10 01:36:36;;;;;;;6.80;3.57;;;21.60;78.80;;;;;;6093739;23;20174;-83
2021/06/10 01:39:07;;;;;;;10.97;4.57;;;21.50;79.00;;;;;;6092194;23;20208;-82
2021/06/10 01:41:33;;;;;;;6.00;4.30;;;21.50;79.40;;;;;;6092194;23;20220;-84
2021/06/10 01:44:00;;;;;;;7.07;4.00;;;21.60;79.40;;;;;;6092405;23;20202;-83
2021/06/10 01:46:27;;;;;;;9.20;3.87;;;21.50;79.90;;;;;;6092271;23;20154;-83
2021/06/10 01:48:54;;;;;;;4.77;4.10;;;21.50;80.00;;;;;;6092312;23;20151;-84
2021/06/10 01:51:23;;;;;;;6.93;4.40;;;21.50;80.30;;;;;;6091790;23;20185;-84
2021/06/10 01:53:50;;;;;;;4.90;3.80;;;21.50;80.20;;;;;;6092306;23;20646;-84
2021/06/10 01:56:19;;;;;;;6.83;4.03;;;21.50;80.30;;;;;;6092569;23;20594;-84
2021/06/10 01:58:45;;;;;;;6.70;3.90;;;21.50;80.60;;;;;;6092083;23;20176;-84
2021/06/10 02:01:12;;;;;;;10.87;5.07;;;21.50;81.10;;;;;;6092167;23;20177;-83
2021/06/10 02:03:38;;;;;;;10.47;4.23;;;21.50;81.10;;;;;;6092024;23;20154;-84
2021/06/10 02:06:08;;;;;;;9.67;4.30;;;21.40;81.20;;;;;;6092147;23;20153;-84
2021/06/10 02:08:34;;;;;;;11.47;4.40;;;21.30;81.80;;;;;;6092458;23;20163;-82
2021/06/10 02:11:00;;;;;;;7.20;4.63;;;21.20;82.60;;;;;;6092048;23;20200;-82
2021/06/10 02:13:28;;;;;;;6.73;4.30;;;21.10;83.20;;;;;;6092450;23;20268;-82
2021/06/10 02:16:02;;;;;;;10.67;4.50;;;21.00;83.50;;;;;;6092370;23;20150;-84
2021/06/10 02:18:28;;;;;;;6.50;4.77;;;21.10;83.40;;;;;;6092224;23;20516;-83
2021/06/10 02:20:54;;;;;;;6.93;4.97;;;21.10;83.10;;;;;;6091896;23;20216;-82
2021/06/10 02:23:19;;;;;;;7.53;4.70;;;21.30;82.00;;;;;;6092389;23;20587;-82
2021/06/10 02:25:46;;;;;;;6.80;4.87;;;21.10;83.10;;;;;;6091960;23;20201;-82
2021/06/10 02:28:11;;;;;;;7.97;5.27;;;21.00;83.90;;;;;;6092810;23;20159;-83
2021/06/10 02:30:37;;;;;;;7.70;5.10;;;21.00;83.80;;;;;;6091990;23;20360;-82
2021/06/10 02:33:03;;;;;;;8.47;5.50;;;21.10;82.80;;;;;;6091910;23;20644;-82
2021/06/10 02:35:28;;;;;;;8.40;5.00;;;21.10;82.50;;;;;;6091833;23;20177;-82
2021/06/10 02:37:58;;;;;;;9.20;6.10;;;21.00;83.50;;;;;;6092139;23;20161;-82
2021/06/10 02:40:46;;;;;;;8.17;5.97;;;21.10;83.50;;;;;;6092204;23;20162;-82
2021/06/10 02:43:13;;;;;;;8.53;6.60;;;21.10;82.40;;;;;;6092327;23;20186;-82
2021/06/10 02:45:42;;;;;;;8.23;6.77;;;20.90;82.30;;;;;;6091433;23;20201;-82
2021/06/10 02:48:09;;;;;;;9.17;7.13;;;21.00;82.40;;;;;;6092045;23;20160;-82
2021/06/10 02:50:35;;;;;;;10.27;8.90;;;21.10;81.70;;;;;;6093431;23;20414;-82
2021/06/10 02:53:04;;;;;;;14.13;10.30;;;21.20;79.80;;;;;;6092105;23;20236;-82
2021/06/10 02:55:32;;;;;;;12.90;11.00;;;21.60;77.40;;;;;;6093543;23;20225;-82
2021/06/10 02:57:58;;;;;;;11.10;9.77;;;21.80;76.90;;;;;;6092024;23;20162;-82
2021/06/10 03:00:28;;;;;;;12.10;10.40;;;21.60;78.00;;;;;;6092425;23;20591;-81
2021/06/10 03:02:54;;;;;;;13.10;10.73;;;21.40;78.60;;;;;;6091985;23;20248;-82
2021/06/10 03:05:23;;;;;;;15.27;9.10;;;21.40;79.10;;;;;;6091881;23;20187;-81
2021/06/10 03:07:50;;;;;;;12.33;10.67;;;21.10;80.80;;;;;;6091181;23;20161;-82
2021/06/10 03:10:16;;;;;;;13.40;9.83;;;20.90;81.50;;;;;;6091917;23;20645;-82
2021/06/10 03:12:42;;;;;;;10.30;9.20;;;20.70;82.60;;;;;;6092154;23;20177;-82
2021/06/10 03:15:10;;;;;;;14.73;10.60;;;20.60;83.40;;;;;;6091644;23;20660;-82
2021/06/10 03:17:40;;;;;;;14.77;11.33;;;20.50;83.70;;;;;;6092130;23;20149;-82
2021/06/10 03:20:07;;;;;;;12.60;10.83;;;20.60;83.70;;;;;;6092088;23;20164;-82
2021/06/10 03:22:33;;;;;;;12.53;10.30;;;20.40;84.00;;;;;;6093366;23;20173;-82
2021/06/10 03:25:01;;;;;;;12.97;11.33;;;20.40;84.50;;;;;;6091905;23;20231;-82
2021/06/10 03:27:28;;;;;;;14.23;11.30;;;20.30;85.00;;;;;;6091908;23;20150;-82
2021/06/10 03:29:54;;;;;;;14.20;11.20;;;20.20;84.80;;;;;;6093771;23;20574;-84
2021/06/10 03:32:20;;;;;;;13.90;10.97;;;20.30;84.80;;;;;;6093207;23;20137;-81
2021/06/10 03:34:47;;;;;;;14.70;11.67;;;20.40;84.50;;;;;;6093136;23;20503;-82
2021/06/10 03:37:15;;;;;;;14.37;11.33;;;20.40;84.60;;;;;;6091544;23;20617;-82
2021/06/10 03:39:41;;;;;;;12.40;9.80;;;20.30;85.30;;;;;;6091611;23;20163;-81
2021/06/10 03:42:08;;;;;;;13.80;10.37;;;20.30;85.60;;;;;;6092169;23;20161;-82
2021/06/10 03:44:34;;;;;;;15.43;11.27;;;20.30;85.80;;;;;;6091905;23;20150;-81
2021/06/10 03:47:01;;;;;;;14.87;11.17;;;20.40;85.40;;;;;;6091716;23;20241;-82
2021/06/10 03:49:27;;;;;;;16.37;11.20;;;20.40;85.90;;;;;;6093537;23;20140;-81
2021/06/10 03:51:53;;;;;;;16.57;11.07;;;20.20;86.50;;;;;;6092121;23;20613;-83
2021/06/10 03:54:20;;;;;;;16.37;11.70;;;20.20;86.80;;;;;;6091728;23;20315;-82
2021/06/10 03:56:46;;;;;;;13.53;11.27;;;20.20;86.80;;;;;;6091434;23;20157;-84
2021/06/10 03:59:12;;;;;;;14.13;11.07;;;20.20;86.30;;;;;;6091915;23;20165;-82
2021/06/10 04:01:38;;;;;;;14.33;11.87;;;20.30;86.30;;;;;;6091367;23;20174;-81
2021/06/10 04:04:04;;;;;;;14.73;11.07;;;20.30;86.40;;;;;;6091836;23;20195;-82
2021/06/10 04:06:34;;;;;;;15.30;12.33;;;20.30;86.50;;;;;;6091628;23;20153;-83
2021/06/10 04:09:01;;;;;;;17.10;11.97;;;20.40;86.10;;;;;;6091848;23;20240;-82
2021/06/10 04:11:27;;;;;;;13.23;11.83;;;20.40;86.70;;;;;;6091445;23;20154;-82
2021/06/10 04:13:53;;;;;;;14.93;12.10;;;20.30;87.50;;;;;;6091110;23;20208;-82
2021/06/10 04:16:18;;;;;;;13.73;11.80;;;20.30;88.00;;;;;;6091735;23;20149;-83
2021/06/10 04:18:44;;;;;;;15.37;11.43;;;20.30;88.40;;;;;;6091679;23;20153;-82
2021/06/10 04:21:10;;;;;;;21.63;13.80;;;20.20;88.30;;;;;;6092063;23;20158;-83
2021/06/10 04:23:37;;;;;;;15.00;11.73;;;20.20;87.90;;;;;;6091707;23;20193;-83
2021/06/10 04:26:02;;;;;;;14.43;11.80;;;20.30;87.20;;;;;;6091588;23;20150;-82
2021/06/10 04:28:28;;;;;;;15.77;11.87;;;20.20;87.90;;;;;;6091090;23;20252;-82
2021/06/10 04:30:54;;;;;;;14.73;12.03;;;20.20;88.20;;;;;;6091416;23;20181;-82
2021/06/10 04:33:19;;;;;;;16.63;11.63;;;20.20;88.30;;;;;;6091347;23;20519;-83
2021/06/10 04:35:45;;;;;;;17.00;12.67;;;20.20;88.30;;;;;;6091405;23;20481;-82
2021/06/10 04:38:13;;;;;;;23.33;12.50;;;20.30;88.70;;;;;;6091427;23;20493;-82
2021/06/10 04:40:39;;;;;;;18.90;12.13;;;20.20;88.50;;;;;;6091548;23;20154;-82
2021/06/10 04:43:05;;;;;;;17.27;12.60;;;20.20;88.90;;;;;;6091398;23;20234;-81
2021/06/10 04:45:30;;;;;;;34.00;13.37;;;20.30;88.60;;;;;;6091413;23;20150;-82
2021/06/10 04:47:56;;;;;;;29.77;12.67;;;20.50;87.90;;;;;;6091027;23;20157;-82
2021/06/10 04:50:25;;;;;;;27.50;13.20;;;20.50;88.00;;;;;;6090782;23;20157;-82
2021/06/10 04:52:51;;;;;;;24.87;13.03;;;20.50;88.70;;;;;;6090986;23;20700;-83
2021/06/10 04:55:17;;;;;;;31.20;13.00;;;20.50;88.80;;;;;;6091616;23;20150;-83
2021/06/10 04:57:42;;;;;;;27.63;12.83;;;20.50;89.70;;;;;;6091299;23;20158;-82
2021/06/10 05:00:08;;;;;;;30.17;11.43;;;20.60;89.30;;;;;;6090779;23;20245;-81
2021/06/10 05:02:36;;;;;;;17.43;9.80;;;20.70;88.30;;;;;;6090959;23;20258;-82
2021/06/10 05:05:01;;;;;;;13.07;7.90;;;21.20;82.30;;;;;;6090763;23;20212;-82
2021/06/10 05:07:27;;;;;;;16.60;8.33;;;21.50;79.60;;;;;;6091197;23;20153;-82
2021/06/10 05:09:52;;;;;;;14.47;7.90;;;21.50;77.10;;;;;;6090907;23;20678;-82
2021/06/10 05:12:18;;;;;;;13.40;6.83;;;21.50;76.40;;;;;;6092439;23;20153;-82
2021/06/10 05:14:44;;;;;;;12.30;6.50;;;21.60;76.10;;;;;;6091160;23;20270;-82
2021/06/10 05:17:11;;;;;;;9.63;7.07;;;21.70;75.80;;;;;;6091271;23;20148;-82
2021/06/10 05:19:36;;;;;;;8.67;6.70;;;21.70;73.30;;;;;;6085916;23;20574;-82
2021/06/10 05:22:02;;;;;;;9.83;6.60;;;21.60;72.70;;;;;;6091747;23;20136;-82
2021/06/10 05:24:29;;;;;;;9.53;6.30;;;21.60;71.90;;;;;;6091230;23;20194;-82
2021/06/10 05:26:55;;;;;;;9.23;6.40;;;21.60;71.00;;;;;;6091635;23;20148;-83
2021/06/10 05:29:21;;;;;;;9.03;6.03;;;21.50;71.80;;;;;;6091620;23;20167;-83
2021/06/10 05:31:47;;;;;;;8.30;6.03;;;21.60;70.50;;;;;;6091087;23;20161;-80
2021/06/10 05:34:13;;;;;;;9.80;6.17;;;21.50;71.20;;;;;;6091992;23;20299;-83
2021/06/10 05:36:38;;;;;;;8.60;5.50;;;21.40;69.50;;;;;;6092045;23;20224;-82
2021/06/10 05:39:04;;;;;;;12.03;5.83;;;21.20;68.60;;;;;;6092069;23;20252;-81
2021/06/10 05:41:30;;;;;;;11.47;6.20;;;21.20;69.30;;;;;;6091674;23;20153;-82
2021/06/10 05:43:56;;;;;;;8.20;5.17;;;21.10;69.10;;;;;;6091261;23;20174;-82
2021/06/10 05:46:22;;;;;;;9.33;5.13;;;21.10;67.80;;;;;;6092419;23;20154;-83
2021/06/10 05:48:48;;;;;;;11.43;6.20;;;21.10;69.20;;;;;;6091398;23;20178;-82
2021/06/10 05:51:14;;;;;;;10.17;7.03;;;21.10;70.50;;;;;;6092252;23;20173;-82
2021/06/10 05:53:40;;;;;;;11.47;7.07;;;21.20;71.10;;;;;;6091838;23;20187;-82
2021/06/10 05:56:06;;;;;;;15.97;7.63;;;21.30;70.90;;;;;;6091758;23;20183;-82
2021/06/10 05:58:32;;;;;;;13.00;7.07;;;21.30;71.80;;;;;;6091060;23;20492;-84
2021/06/10 06:00:57;;;;;;;12.10;7.97;;;21.20;72.10;;;;;;6092215;23;20222;-82
2021/06/10 06:03:23;;;;;;;17.20;8.23;;;21.10;72.90;;;;;;6092405;23;20229;-84
2021/06/10 06:05:49;;;;;;;14.93;8.53;;;21.10;73.60;;;;;;6091636;23;20156;-82
2021/06/10 06:08:16;;;;;;;13.23;7.83;;;21.10;73.50;;;;;;6091928;23;20152;-83
2021/06/10 06:10:41;;;;;;;16.93;8.63;;;21.10;74.30;;;;;;6091557;23;20477;-82
2021/06/10 06:13:09;;;;;;;15.70;9.30;;;21.10;73.80;;;;;;6093168;23;20173;-81
2021/06/10 06:15:35;;;;;;;13.73;9.50;;;21.00;75.10;;;;;;6092160;23;20159;-81
2021/06/10 06:18:01;;;;;;;14.93;9.87;;;21.00;76.10;;;;;;6092281;23;20475;-83
2021/06/10 06:20:27;;;;;;;14.67;9.43;;;21.00;77.20;;;;;;6091610;23;20192;-82
2021/06/10 06:22:52;;;;;;;12.67;9.50;;;21.00;78.30;;;;;;6091773;23;20238;-82
2021/06/10 06:25:19;;;;;;;18.87;10.57;;;21.00;78.00;;;;;;6091140;23;20162;-82
2021/06/10 06:27:46;;;;;;;15.70;9.83;;;21.10;78.00;;;;;;6091802;23;20155;-82
2021/06/10 06:30:12;;;;;;;15.07;10.10;;;21.10;78.90;;;;;;6091868;23;20159;-83
2021/06/10 06:32:38;;;;;;;17.10;9.87;;;21.30;78.80;;;;;;6091895;23;20158;-81
2021/06/10 06:35:05;;;;;;;17.90;9.43;;;21.30;78.80;;;;;;6091772;23;20345;-82
2021/06/10 06:37:31;;;;;;;13.23;9.30;;;21.40;77.30;;;;;;6091006;23;20197;-83
2021/06/10 06:39:56;;;;;;;16.90;9.57;;;21.60;76.20;;;;;;6090983;23;20160;-82
2021/06/10 06:42:22;;;;;;;10.23;8.03;;;21.60;76.10;;;;;;6092114;23;20156;-83
2021/06/10 06:44:49;;;;;;;11.67;7.47;;;21.70;74.80;;;;;;6092592;23;20177;-86
2021/06/10 06:47:15;;;;;;;9.43;6.20;;;21.70;72.90;;;;;;6091750;23;20171;-83
2021/06/10 06:49:41;;;;;;;9.50;6.13;;;21.80;71.00;;;;;;6092404;23;20496;-84
2021/06/10 06:52:07;;;;;;;11.63;5.57;;;21.80;69.80;;;;;;6091908;23;20152;-83
2021/06/10 06:54:32;;;;;;;12.40;5.60;;;21.90;69.20;;;;;;6090319;23;20192;-82
2021/06/10 06:56:58;;;;;;;12.47;5.83;;;22.10;69.80;;;;;;6090155;23;20192;-82
2021/06/10 06:59:24;;;;;;;6.97;3.93;;;22.20;69.10;;;;;;6093089;23;20192;-82
2021/06/10 07:01:49;;;;;;;9.63;5.13;;;22.20;65.80;;;;;;6091987;23;20173;-83
2021/06/10 07:04:15;;;;;;;5.53;3.50;;;22.30;66.10;;;;;;6092276;23;20236;-83
2021/06/10 07:06:41;;;;;;;5.40;2.77;;;22.30;65.70;;;;;;6091883;23;20215;-83
2021/06/10 07:09:06;;;;;;;6.10;2.77;;;22.50;63.60;;;;;;6091995;23;20177;-82
2021/06/10 07:11:34;;;;;;;5.70;2.40;;;22.50;62.40;;;;;;6091984;23;20184;-83
2021/06/10 07:14:01;;;;;;;0.80;0.80;;;22.50;62.30;;;;;;6092143;23;20182;-83
2021/06/10 07:16:26;;;;;;;4.60;1.50;;;22.50;60.30;;;;;;6091924;23;20153;-83
2021/06/10 07:18:52;;;;;;;2.10;1.50;;;22.30;59.60;;;;;;6091886;23;20163;-83
2021/06/10 07:21:18;;;;;;;4.33;1.60;;;22.40;61.50;;;;;;6091926;23;20632;-85
2021/06/10 07:23:43;;;;;;;3.53;1.60;;;22.40;61.70;;;;;;6092068;23;20157;-83
2021/06/10 07:26:09;;;;;;;3.47;1.40;;;22.60;62.40;;;;;;6091764;23;20217;-83
2021/06/10 07:28:34;;;;;;;7.13;1.90;;;22.60;62.70;;;;;;6092305;23;20510;-83
2021/06/10 07:31:00;;;;;;;4.83;1.67;;;22.60;62.40;;;;;;6091685;23;20162;-82
2021/06/10 07:33:26;;;;;;;2.87;1.50;;;22.70;61.60;;;;;;6091919;23;20230;-83
2021/06/10 07:35:51;;;;;;;2.90;1.50;;;22.60;62.70;;;;;;6091397;23;20203;-82
2021/06/10 07:38:17;;;;;;;2.50;1.93;;;22.70;60.70;;;;;;6092115;23;20189;-83
2021/06/10 07:40:42;;;;;;;3.47;1.20;;;22.80;60.10;;;;;;6091679;23;20156;-83
2021/06/10 07:43:08;;;;;;;1.90;1.07;;;22.50;58.10;;;;;;6091489;23;20162;-83
2021/06/10 07:45:35;;;;;;;1.83;1.37;;;22.60;58.10;;;;;;6091433;23;20153;-83
2021/06/10 07:48:01;;;;;;;3.20;1.70;;;22.70;58.70;;;;;;6090990;23;20149;-83
2021/06/10 07:50:27;;;;;;;5.47;2.00;;;22.90;59.20;;;;;;6092164;23;20162;-84
2021/06/10 07:52:53;;;;;;;5.60;1.60;;;23.00;60.20;;;;;;6091298;23;20222;-83
2021/06/10 07:55:21;;;;;;;4.40;1.50;;;23.20;59.40;;;;;;6091820;23;20154;-83
2021/06/10 07:57:47;;;;;;;2.17;1.50;;;23.40;58.50;;;;;;6092409;23;20154;-83
2021/06/10 08:00:13;;;;;;;1.53;1.00;;;23.50;55.60;;;;;;6091828;23;20176;-84
2021/06/10 08:02:39;;;;;;;3.00;1.10;;;23.50;56.20;;;;;;6092166;23;20183;-84
2021/06/10 08:05:05;;;;;;;3.60;2.00;;;23.60;57.50;;;;;;6091904;23;20161;-83
2021/06/10 08:07:31;;;;;;;2.67;1.50;;;23.80;59.20;;;;;;6091623;23;20157;-84
2021/06/10 08:09:56;;;;;;;3.40;1.43;;;23.90;61.40;;;;;;6091922;23;20166;-84
2021/06/10 08:12:23;;;;;;;3.20;1.77;;;24.00;61.80;;;;;;6091478;23;20193;-83
2021/06/10 08:14:50;;;;;;;2.77;1.60;;;24.10;60.50;;;;;;6092302;23;20281;-84
2021/06/10 08:17:17;;;;;;;2.70;1.50;;;24.10;59.70;;;;;;6091818;23;20208;-84
2021/06/10 08:19:43;;;;;;;6.77;2.60;;;23.90;60.30;;;;;;6091962;23;20244;-83
2021/06/10 08:22:10;;;;;;;2.80;1.17;;;23.90;62.00;;;;;;6091209;23;20142;-84
2021/06/10 08:24:35;;;;;;;4.07;1.23;;;23.90;58.70;;;;;;6091415;23;20495;-84
2021/06/10 08:27:01;;;;;;;2.23;1.73;;;23.80;60.10;;;;;;6091503;23;20155;-83
2021/06/10 08:29:28;;;;;;;6.07;1.70;;;23.60;62.90;;;;;;6091982;23;20540;-84
2021/06/10 08:31:55;;;;;;;4.23;1.30;;;23.50;63.70;;;;;;6091845;23;20185;-84
2021/06/10 08:34:22;;;;;;;3.80;1.80;;;23.40;63.50;;;;;;6091833;23;20198;-84
2021/06/10 08:36:49;;;;;;;5.17;1.70;;;23.40;64.50;;;;;;6091496;23;20262;-84
2021/06/10 08:39:15;;;;;;;3.73;2.10;;;23.40;66.50;;;;;;6091597;23;20177;-84
2021/06/10 08:41:42;;;;;;;4.03;1.73;;;23.30;66.80;;;;;;6091905;23;20459;-84
2021/06/10 08:44:08;;;;;;;2.40;1.30;;;23.40;66.90;;;;;;6091774;23;20161;-84
2021/06/10 08:46:36;;;;;;;5.87;1.40;;;23.60;65.40;;;;;;6091249;23;20511;-84
2021/06/10 08:49:04;;;;;;;1.70;1.33;;;23.60;63.10;;;;;;6090767;23;20152;-84
2021/06/10 08:51:30;;;;;;;5.80;1.80;;;23.60;64.60;;;;;;6091649;23;20486;-83
2021/06/10 08:53:57;;;;;;;3.50;1.70;;;23.60;65.80;;;;;;6091081;23;20188;-84
2021/06/10 08:56:27;;;;;;;1.60;1.30;;;23.60;65.20;;;;;;6091488;23;20162;-84
2021/06/10 08:58:53;;;;;;;3.83;1.40;;;23.70;63.20;;;;;;6092011;23;20239;-84
2021/06/10 09:01:19;;;;;;;2.73;1.33;;;23.70;61.70;;;;;;6092847;23;20206;-84
2021/06/10 09:03:44;;;;;;;2.20;1.40;;;23.70;62.40;;;;;;6093024;23;20155;-84
2021/06/10 09:06:18;;;;;;;4.70;1.60;;;23.80;63.00;;;;;;6091954;23;20188;-84
2021/06/10 09:08:56;;;;;;;2.23;1.50;;;24.00;63.10;;;;;;6092567;23;20614;-83
2021/06/10 09:11:26;;;;;;;1.33;1.23;;;24.20;63.70;;;;;;6092571;23;20157;-84
2021/06/10 09:13:57;;;;;;;1.60;1.30;;;24.30;61.90;;;;;;6092533;23;20221;-83
2021/06/10 09:16:33;;;;;;;3.20;0.90;;;24.30;60.30;;;;;;6092417;23;20154;-83
2021/06/10 09:19:03;;;;;;;3.27;1.50;;;24.20;60.40;;;;;;6092331;23;20195;-85
2021/06/10 09:21:31;;;;;;;2.70;1.40;;;24.20;63.20;;;;;;6092763;23;20153;-84
2021/06/10 09:24:18;;;;;;;5.00;1.33;;;24.30;65.20;;;;;;6092744;23;20591;-84
2021/06/10 09:26:45;;;;;;;1.63;1.53;;;24.60;65.50;;;;;;6092288;23;20161;-84
2021/06/10 09:29:11;;;;;;;3.70;1.20;;;24.60;65.50;;;;;;6092239;23;20163;-83
2021/06/10 09:31:37;;;;;;;2.80;1.70;;;24.60;66.30;;;;;;6092093;23;20619;-84
2021/06/10 09:34:09;;;;;;;3.60;1.70;;;24.60;67.70;;;;;;6091861;23;20201;-83
2021/06/10 09:36:42;;;;;;;1.90;1.67;;;24.70;67.70;;;;;;6091594;23;20701;-83
2021/06/10 09:39:14;;;;;;;2.07;1.50;;;24.80;67.80;;;;;;6091828;23;20162;-84
2021/06/10 09:42:06;;;;;;;2.03;1.20;;;24.90;68.30;;;;;;6090949;23;20151;-83
2021/06/10 09:44:48;;;;;;;2.40;1.50;;;24.80;67.80;;;;;;6091910;23;20157;-83
2021/06/10 09:47:14;;;;;;;4.30;1.40;;;24.60;68.50;;;;;;6091318;23;20147;-83
2021/06/10 09:49:40;;;;;;;5.33;1.80;;;24.50;68.70;;;;;;6090699;23;20155;-84
2021/06/10 09:52:06;;;;;;;3.63;1.43;;;24.50;70.70;;;;;;6091016;23;20234;-83
2021/06/10 09:54:58;;;;;;;1.77;1.67;;;24.50;70.90;;;;;;6091260;23;20236;-84
2021/06/10 09:57:24;;;;;;;1.60;1.30;;;24.60;69.50;;;;;;6092788;23;20155;-83
2021/06/10 09:59:54;;;;;;;2.10;1.27;;;24.50;67.80;;;;;;6092701;23;20173;-86
2021/06/10 10:02:27;;;;;;;1.43;1.33;;;24.50;68.90;;;;;;6092478;23;20313;-83
2021/06/10 10:04:57;;;;;;;5.47;1.57;;;24.50;68.60;;;;;;6068853;23;20507;-83
2021/06/10 10:07:27;;;;;;;5.20;1.70;;;24.50;69.00;;;;;;6092445;23;20151;-85
2021/06/10 10:09:57;;;;;;;1.50;1.40;;;24.40;69.80;;;;;;6091951;23;20238;-84
2021/06/10 10:12:25;;;;;;;2.80;1.67;;;24.40;70.10;;;;;;6092112;23;20198;-83
2021/06/10 10:14:51;;;;;;;2.77;1.70;;;24.40;69.70;;;;;;6092381;23;20705;-86
2021/06/10 10:17:18;;;;;;;3.30;1.70;;;24.50;68.70;;;;;;6092333;23;20177;-85
2021/06/10 10:19:44;;;;;;;3.63;1.80;;;24.50;70.00;;;;;;6092946;23;20161;-86
2021/06/10 10:22:11;;;;;;;2.87;2.20;;;24.60;71.40;;;;;;6092293;23;20147;-86
2021/06/10 10:24:41;;;;;;;3.00;2.20;;;24.60;71.50;;;;;;6092250;23;20285;-85
2021/06/10 10:27:10;;;;;;;4.43;2.23;;;24.60;71.20;;;;;;6092883;23;20276;-85
2021/06/10 10:29:38;;;;;;;3.10;1.93;;;24.70;71.50;;;;;;6092488;23;20158;-86
2021/06/10 10:32:06;;;;;;;2.37;2.17;;;24.80;71.30;;;;;;6091308;23;20155;-85
2021/06/10 10:34:34;;;;;;;4.30;2.07;;;25.00;70.90;;;;;;6090674;23;20680;-84
2021/06/10 10:37:17;;;;;;;3.47;1.83;;;25.20;69.40;;;;;;6092330;23;20150;-85
2021/06/10 10:39:44;;;;;;;5.00;2.53;;;24.90;69.20;;;;;;6092318;23;20165;-85
2021/06/10 10:42:10;;;;;;;3.70;2.63;;;24.70;69.00;;;;;;6092348;23;20150;-85
2021/06/10 10:44:35;;;;;;;6.10;3.07;;;24.40;70.60;;;;;;6092822;23;20181;-86
2021/06/10 10:47:02;;;;;;;2.50;2.13;;;24.40;70.30;;;;;;6092391;23;20153;-85
2021/06/10 10:49:30;;;;;;;5.07;2.43;;;24.60;69.30;;;;;;6092509;23;20151;-86
2021/06/10 10:52:15;;;;;;;2.13;1.80;;;24.70;68.80;;;;;;6092359;23;20179;-85
2021/06/10 10:54:48;;;;;;;2.87;2.10;;;24.90;68.30;;;;;;6092136;23;20639;-83
2021/06/10 10:57:35;;;;;;;3.80;1.87;;;25.00;67.50;;;;;;6092286;23;20148;-83
2021/06/10 11:00:01;;;;;;;2.73;1.97;;;25.10;68.00;;;;;;6092195;23;20166;-85
2021/06/10 11:02:27;;;;;;;7.77;2.33;;;25.10;66.30;;;;;;6092391;23;20179;-85
2021/06/10 11:04:55;;;;;;;5.70;2.40;;;25.30;68.10;;;;;;6092392;23;20159;-84
2021/06/10 11:07:36;;;;;;;4.10;2.50;;;25.40;68.80;;;;;;6092373;23;20587;-86
2021/06/10 11:10:20;;;;;;;4.40;2.97;;;25.40;66.30;;;;;;6092135;23;20155;-85
2021/06/10 11:12:53;;;;;;;3.83;2.63;;;25.40;68.00;;;;;;6092005;23;20151;-85
2021/06/10 11:15:26;;;;;;;4.57;2.47;;;25.30;68.90;;;;;;6091410;23;20162;-85
2021/06/10 11:17:58;;;;;;;4.77;2.63;;;25.40;67.80;;;;;;6092235;23;20240;-85
2021/06/10 11:20:40;;;;;;;3.73;2.10;;;25.70;68.00;;;;;;6092605;23;20151;-86
2021/06/10 11:23:29;;;;;;;3.97;2.20;;;25.90;65.30;;;;;;6091836;23;20584;-85
2021/06/10 11:25:57;;;;;;;4.50;2.60;;;26.00;64.10;;;;;;6091977;23;20243;-85
2021/06/10 11:28:25;;;;;;;3.43;2.40;;;26.30;63.20;;;;;;6092061;23;20204;-85
2021/06/10 11:30:54;;;;;;;3.87;2.30;;;26.60;63.10;;;;;;6091203;23;20212;-85
2021/06/10 11:33:19;;;;;;;2.47;2.00;;;27.40;61.90;;;;;;6090554;23;20198;-86
2021/06/10 11:36:04;;;;;;;2.73;2.23;;;28.30;59.40;;;;;;6089985;23;20253;-86
2021/06/10 11:38:33;;;;;;;7.03;2.30;;;29.10;57.30;;;;;;6092017;23;20150;-86
2021/06/10 11:41:08;;;;;;;3.13;1.60;;;30.50;55.00;;;;;;6092031;23;20160;-84
2021/06/10 11:43:37;;;;;;;1.88;1.15;;;31.70;52.60;;;;;;6092357;23;20196;-86
2021/06/10 11:46:04;;;;;;;3.20;1.50;;;33.10;48.80;;;;;;6091563;23;20150;-84
2021/06/10 11:48:39;;;;;;;2.65;1.60;;;34.30;49.90;;;;;;6092410;23;20161;-86
2021/06/10 11:51:07;;;;;;;3.38;1.70;;;34.80;49.50;;;;;;6092123;23;20241;-87
2021/06/10 11:53:34;;;;;;;5.35;2.08;;;35.50;48.90;;;;;;6092119;23;20170;-88
2021/06/10 11:56:00;;;;;;;2.22;1.55;;;35.50;49.20;;;;;;6092486;23;20198;-86
2021/06/10 11:58:30;;;;;;;2.40;2.17;;;34.90;48.40;;;;;;6092173;23;20163;-87
2021/06/10 12:01:04;;;;;;;2.35;1.52;;;34.90;48.30;;;;;;6092127;23;20178;-86
2021/06/10 12:03:35;;;;;;;2.58;1.67;;;35.50;48.40;;;;;;6092426;23;20147;-87
2021/06/10 12:06:00;;;;;;;4.65;1.55;;;36.40;48.00;;;;;;6092447;23;20237;-86
2021/06/10 12:08:27;;;;;;;6.03;1.95;;;37.60;46.00;;;;;;6092094;23;20181;-84
2021/06/10 12:10:58;;;;;;;1.70;1.20;;;37.00;45.20;;;;;;6092390;23;20209;-86
2021/06/10 12:13:35;;;;;;;2.70;1.40;;;36.70;45.00;;;;;;6091572;23;20186;-87
2021/06/10 12:16:04;;;;;;;2.47;1.80;;;37.10;45.50;;;;;;6092255;23;20595;-87
2021/06/10 12:18:31;;;;;;;1.73;1.48;;;37.50;45.60;;;;;;6092069;23;20155;-86
2021/06/10 12:21:03;;;;;;;2.47;1.88;;;37.40;45.60;;;;;;6092360;23;20147;-87
2021/06/10 12:23:36;;;;;;;3.85;1.80;;;38.10;45.50;;;;;;6091912;23;20490;-87
2021/06/10 12:26:07;;;;;;;2.33;1.77;;;38.90;44.70;;;;;;6092163;23;20151;-87
2021/06/10 12:28:37;;;;;;;3.10;1.60;;;39.20;43.70;;;;;;6091899;23;20161;-87
2021/06/10 12:31:16;;;;;;;4.93;1.73;;;39.50;43.00;;;;;;6092272;23;20159;-87
2021/06/10 12:33:44;;;;;;;2.90;1.85;;;39.80;42.30;;;;;;6092159;23;20192;-87
2021/06/10 12:36:31;;;;;;;5.03;1.90;;;40.10;42.50;;;;;;6093133;23;20166;-86
2021/06/10 12:39:10;;;;;;;4.78;2.50;;;39.10;43.40;;;;;;6092985;23;20212;-86
2021/06/10 12:41:41;;;;;;;2.72;1.83;;;38.20;43.90;;;;;;6093041;23;20158;-87
2021/06/10 12:44:12;;;;;;;2.28;1.40;;;38.00;43.90;;;;;;6092503;23;20173;-87
2021/06/10 12:46:48;;;;;;;3.88;1.70;;;38.60;43.90;;;;;;6093225;23;20488;-87
2021/06/10 12:49:14;;;;;;;6.13;2.80;;;38.50;43.00;;;;;;6093054;23;20155;-87